createdAt,value
2022-10-21T00:00:30.131Z,76.72
2022-10-21T00:04:46.144Z,76.19
2022-10-21T00:08:45.358Z,76.46
2022-10-21T00:12:49.451Z,76.60
2022-10-21T00:16:24.280Z,76.74
2022-10-21T00:20:28.597Z,77.00
2022-10-21T00:24:03.730Z,77.10
2022-10-21T00:28:10.934Z,76.68
2022-10-21T00:31:48.628Z,76.74
2022-10-21T00:35:23.280Z,76.86
2022-10-21T00:39:29.685Z,77.31
2022-10-21T00:43:04.759Z,77.24
2022-10-21T00:47:12.283Z,77.06
2022-10-21T00:50:49.566Z,77.48
2022-10-21T00:54:19.221Z,77.44
2022-10-21T00:58:26.804Z,77.38
2022-10-21T01:02:00.616Z,77.06
2022-10-21T01:05:53.637Z,77.13
2022-10-21T01:09:15.158Z,77.06
2022-10-21T01:12:57.663Z,77.11
2022-10-21T01:16:49.130Z,77.12
2022-10-21T01:20:22.636Z,77.72
2022-10-21T01:24:40.715Z,77.03
2022-10-21T01:28:10.199Z,77.08
2022-10-21T01:31:40.182Z,76.99
2022-10-21T01:35:45.757Z,77.72
2022-10-21T01:39:58.683Z,77.20
2022-10-21T01:44:05.309Z,76.97
2022-10-21T01:47:44.817Z,76.81
2022-10-21T01:51:13.422Z,77.02
2022-10-21T01:55:18.313Z,77.25
2022-10-21T01:59:21.531Z,77.13
2022-10-21T02:03:24.930Z,77.49
2022-10-21T02:07:02.256Z,77.54
2022-10-21T02:10:54.392Z,77.58
2022-10-21T02:14:19.718Z,77.55
2022-10-21T02:18:25.175Z,77.01
2022-10-21T02:22:02.845Z,77.20
2022-10-21T02:25:40.159Z,77.41
2022-10-21T02:29:21.944Z,77.19
2022-10-21T02:33:12.068Z,77.21
2022-10-21T02:36:44.471Z,77.51
2022-10-21T02:40:20.177Z,77.61
2022-10-21T02:44:05.335Z,77.29
2022-10-21T02:47:24.171Z,77.20
2022-10-21T02:51:07.363Z,77.58
2022-10-21T02:54:38.001Z,78.33
2022-10-21T02:58:37.966Z,78.07
2022-10-21T03:02:20.475Z,78.79
2022-10-21T03:05:54.117Z,79.07
2022-10-21T03:09:58.174Z,78.79
2022-10-21T03:13:51.974Z,78.88
2022-10-21T03:17:13.466Z,78.62
2022-10-21T03:20:50.262Z,78.61
2022-10-21T03:24:29.242Z,78.84
2022-10-21T03:28:07.009Z,78.47
2022-10-21T03:31:44.993Z,78.41
2022-10-21T03:35:20.124Z,78.50
2022-10-21T03:39:22.682Z,77.25
2022-10-21T03:43:26.925Z,77.12
2022-10-21T03:47:01.867Z,77.10
2022-10-21T03:51:02.509Z,77.36
2022-10-21T03:54:40.114Z,76.65
2022-10-21T03:58:41.181Z,76.54
2022-10-21T04:02:19.507Z,76.26
2022-10-21T04:05:58.578Z,77.11
2022-10-21T04:09:36.352Z,76.96
2022-10-21T04:13:11.814Z,76.55
2022-10-21T04:16:53.589Z,76.66
2022-10-21T04:20:29.242Z,76.65
2022-10-21T04:24:07.061Z,75.70
2022-10-21T04:27:42.235Z,75.23
2022-10-21T04:31:46.164Z,74.64
2022-10-21T04:35:21.257Z,73.00
2022-10-21T04:39:26.595Z,72.65
2022-10-21T04:42:58.034Z,73.55
2022-10-21T04:47:05.416Z,72.32
2022-10-21T04:50:45.295Z,72.90
2022-10-21T04:54:21.573Z,72.96
2022-10-21T04:58:00.489Z,73.72
2022-10-21T05:01:35.887Z,72.86
2022-10-21T05:05:38.112Z,73.07
2022-10-21T05:09:35.202Z,72.63
2022-10-21T05:12:55.532Z,72.54
2022-10-21T05:16:29.991Z,72.68
2022-10-21T05:20:33.723Z,73.54
2022-10-21T05:24:09.588Z,73.47
2022-10-21T05:27:45.219Z,72.96
2022-10-21T05:31:44.403Z,73.71
2022-10-21T05:35:43.272Z,73.37
2022-10-21T05:39:42.569Z,74.07
2022-10-21T05:43:45.203Z,74.78
2022-10-21T05:47:45.225Z,73.79
2022-10-21T05:51:45.091Z,74.42
2022-10-21T05:55:43.497Z,74.70
2022-10-21T05:59:42.069Z,75.12
2022-10-21T06:03:40.601Z,74.70
2022-10-21T06:07:39.172Z,75.30
2022-10-21T06:11:41.587Z,75.12
2022-10-21T06:15:16.885Z,74.36
2022-10-21T06:19:15.319Z,73.72
2022-10-21T06:23:16.702Z,75.27
2022-10-21T06:27:21.190Z,74.85
2022-10-21T06:30:55.616Z,74.91
2022-10-21T06:34:37.192Z,75.56
2022-10-21T06:38:12.950Z,75.91
2022-10-21T06:41:46.232Z,75.74
2022-10-21T06:45:52.412Z,75.30
2022-10-21T06:49:45.329Z,75.46
2022-10-21T06:53:04.306Z,74.66
2022-10-21T06:57:04.128Z,75.21
2022-10-21T07:01:16.623Z,76.29
2022-10-21T07:04:40.349Z,75.73
2022-10-21T07:08:47.178Z,76.49
2022-10-21T07:12:16.982Z,76.26
2022-10-21T07:16:24.812Z,75.93
2022-10-21T07:20:23.308Z,76.28
2022-10-21T07:24:27.358Z,76.36
2022-10-21T07:28:06.201Z,76.97
2022-10-21T07:31:42.407Z,76.47
2022-10-21T07:35:19.827Z,76.71
2022-10-21T07:38:58.029Z,77.62
2022-10-21T07:42:32.611Z,77.58
2022-10-21T07:46:32.707Z,77.32
2022-10-21T07:50:34.180Z,76.73
2022-10-21T07:54:35.279Z,77.19
2022-10-21T07:58:36.485Z,77.42
2022-10-21T08:02:36.956Z,77.14
2022-10-21T08:06:39.262Z,77.42
2022-10-21T08:10:14.523Z,77.04
2022-10-21T08:14:16.139Z,76.94
2022-10-21T08:17:55.941Z,76.82
2022-10-21T08:21:28.977Z,76.81
2022-10-21T08:25:30.397Z,77.15
2022-10-21T08:29:52.410Z,77.31
2022-10-21T08:33:10.405Z,77.43
2022-10-21T08:37:15.670Z,77.29
2022-10-21T08:40:51.054Z,76.96
2022-10-21T08:44:59.229Z,76.64
2022-10-21T08:49:07.797Z,75.62
2022-10-21T08:53:18.845Z,76.29
2022-10-21T08:56:49.626Z,76.58
2022-10-21T09:00:28.630Z,76.68
2022-10-21T09:04:40.875Z,76.35
2022-10-21T09:09:01.656Z,75.94
2022-10-21T09:12:30.502Z,76.32
2022-10-21T09:16:47.894Z,76.43
2022-10-21T09:21:06.530Z,76.68
2022-10-21T09:25:32.955Z,77.14
2022-10-21T09:28:47.090Z,77.23
2022-10-21T09:32:51.509Z,77.04
2022-10-21T09:36:54.189Z,77.24
2022-10-21T09:41:05.648Z,77.63
2022-10-21T09:44:34.405Z,77.09
2022-10-21T09:48:18.259Z,77.54
2022-10-21T09:51:51.146Z,77.96
2022-10-21T09:55:24.639Z,77.89
2022-10-21T09:59:30.336Z,77.63
2022-10-21T10:03:38.601Z,77.95
2022-10-21T10:07:30.021Z,77.87
2022-10-21T10:10:51.654Z,77.95
2022-10-21T10:14:56.708Z,77.70
2022-10-21T10:18:32.793Z,77.62
2022-10-21T10:22:15.536Z,77.89
2022-10-21T10:25:49.122Z,78.26
2022-10-21T10:29:54.220Z,78.04
2022-10-21T10:33:59.239Z,78.23
2022-10-21T10:37:36.612Z,78.47
2022-10-21T10:41:16.785Z,78.97
2022-10-21T10:45:22.903Z,78.93
2022-10-21T10:49:04.136Z,79.04
2022-10-21T10:53:09.094Z,78.96
2022-10-21T10:56:30.754Z,78.38
2022-10-21T11:00:11.410Z,78.31
2022-10-21T11:03:35.916Z,78.36
2022-10-21T11:07:10.645Z,78.49
2022-10-21T11:11:05.284Z,78.68
2022-10-21T11:14:21.871Z,78.48
2022-10-21T11:18:48.734Z,78.71
2022-10-21T11:22:06.047Z,78.84
2022-10-21T11:25:44.822Z,78.57
2022-10-21T11:29:53.176Z,78.76
2022-10-21T11:34:04.785Z,78.54
2022-10-21T11:38:14.331Z,78.82
2022-10-21T11:42:17.301Z,78.87
2022-10-21T11:46:33.357Z,79.14
2022-10-21T11:50:02.015Z,79.08
2022-10-21T11:54:13.915Z,78.76
2022-10-21T11:58:12.467Z,78.55
2022-10-21T12:02:30.895Z,77.85
2022-10-21T12:06:39.002Z,77.70
2022-10-21T12:10:39.287Z,77.95
2022-10-21T12:14:43.549Z,78.18
2022-10-21T12:19:07.047Z,78.05
2022-10-21T12:23:07.677Z,77.94
2022-10-21T12:27:39.095Z,77.41
2022-10-21T12:31:52.262Z,77.39
2022-10-21T12:35:54.086Z,77.67
2022-10-21T12:40:09.899Z,77.90
2022-10-21T12:44:28.702Z,77.84
2022-10-21T12:48:55.621Z,78.09
2022-10-21T12:53:15.918Z,77.68
2022-10-21T12:57:43.001Z,77.52
2022-10-21T13:01:42.743Z,77.97
2022-10-21T13:06:07.910Z,78.06
2022-10-21T13:10:14.942Z,78.03
2022-10-21T13:14:36.345Z,78.34
2022-10-21T13:32:21.923Z,78.84
2022-10-21T13:35:20.376Z,79.08
2022-10-21T13:39:27.818Z,79.41
2022-10-21T13:43:30.433Z,79.42
2022-10-21T13:47:42.526Z,79.00
2022-10-21T13:51:47.283Z,79.14
2022-10-21T13:55:58.978Z,79.33
2022-10-21T14:00:22.138Z,79.13
2022-10-21T14:04:21.933Z,79.38
2022-10-21T14:08:20.166Z,79.54
2022-10-21T14:12:23.031Z,79.46
2022-10-21T14:16:24.339Z,79.38
2022-10-21T14:20:28.818Z,79.37
2022-10-21T14:24:43.437Z,79.01
2022-10-21T14:28:42.552Z,78.42
2022-10-21T14:32:41.548Z,79.02
2022-10-21T14:36:59.638Z,79.04
2022-10-21T14:40:59.140Z,79.12
2022-10-21T14:45:16.760Z,79.03
2022-10-21T14:49:18.275Z,79.10
2022-10-21T14:52:43.040Z,79.02
2022-10-21T14:56:43.418Z,78.95
2022-10-21T15:00:46.005Z,79.01
2022-10-21T15:04:50.769Z,78.94
2022-10-21T15:09:05.563Z,79.05
2022-10-21T15:13:14.831Z,79.04
2022-10-21T15:17:16.195Z,79.02
2022-10-21T15:21:24.674Z,79.12
2022-10-21T15:25:24.176Z,79.18
2022-10-21T15:29:48.116Z,79.38
2022-10-21T15:33:10.033Z,79.45
2022-10-21T15:36:37.870Z,79.47
2022-10-21T15:40:36.015Z,79.39
2022-10-21T15:44:34.451Z,79.44
2022-10-21T15:48:32.582Z,79.31
2022-10-21T15:52:30.867Z,79.45
2022-10-21T15:56:28.677Z,79.39
2022-10-21T16:00:41.225Z,79.47
2022-10-21T16:04:42.932Z,79.52
2022-10-21T16:09:00.526Z,79.47
2022-10-21T16:12:20.953Z,79.28
2022-10-21T18:01:10.954Z,79.54
2022-10-21T18:04:23.876Z,79.62
2022-10-21T18:08:22.672Z,79.70
2022-10-21T18:12:23.392Z,79.70
2022-10-21T18:16:17.850Z,79.68
2022-10-21T18:20:18.607Z,79.65
2022-10-21T18:24:17.549Z,79.69
2022-10-21T18:28:16.049Z,79.69
2022-10-21T18:32:27.907Z,79.64
2022-10-21T18:36:26.708Z,79.73
2022-10-21T18:40:25.570Z,79.70
2022-10-21T18:44:24.475Z,79.66
2022-10-21T18:48:23.156Z,79.77
2022-10-21T18:52:21.601Z,79.76
2022-10-21T18:56:20.793Z,79.75
2022-10-21T19:00:19.133Z,79.80
2022-10-21T19:04:17.362Z,79.86
2022-10-21T19:08:16.119Z,79.88
2022-10-21T19:12:17.453Z,79.90
2022-10-21T19:16:17.879Z,79.86
2022-10-21T19:20:17.332Z,79.89
2022-10-21T19:24:16.020Z,79.88
2022-10-21T19:28:14.441Z,79.93
2022-10-21T19:32:26.442Z,79.93
2022-10-21T19:36:27.333Z,79.97
2022-10-21T19:40:02.984Z,80.09
2022-10-21T19:44:01.319Z,80.10
2022-10-21T19:48:00.567Z,80.10
2022-10-21T19:52:01.724Z,80.13
2022-10-21T19:55:36.917Z,80.16
2022-10-21T19:59:34.829Z,80.12
2022-10-21T20:03:33.255Z,80.14
2022-10-21T20:07:34.720Z,80.17
2022-10-21T20:11:32.880Z,80.23
2022-10-21T20:15:36.669Z,80.22
2022-10-21T20:19:10.562Z,80.26
2022-10-21T20:23:08.726Z,80.28
2022-10-21T20:27:07.035Z,80.36
2022-10-21T20:31:06.306Z,80.36
2022-10-21T20:35:04.585Z,80.44
2022-10-21T20:39:03.474Z,80.48
2022-10-21T20:43:01.827Z,80.50
2022-10-21T20:46:59.636Z,80.61
2022-10-21T20:51:15.067Z,80.60
2022-10-21T20:55:26.900Z,80.71
2022-10-21T20:59:25.775Z,80.69
2022-10-21T21:03:23.736Z,80.68
2022-10-21T21:07:22.334Z,80.71
2022-10-21T21:11:21.353Z,80.72
2022-10-21T21:15:19.313Z,80.77
2022-10-21T21:19:19.806Z,80.75
2022-10-21T21:23:17.876Z,80.75
2022-10-21T21:27:16.096Z,80.78
2022-10-21T21:31:14.717Z,80.83
2022-10-21T21:35:12.614Z,80.82
2022-10-21T21:42:48.394Z,80.89
2022-10-21T21:46:46.452Z,80.93
2022-10-21T21:50:45.880Z,80.92
2022-10-21T21:54:44.281Z,81.06
2022-10-21T21:58:58.094Z,81.15
2022-10-21T22:02:56.235Z,81.17
2022-10-21T22:06:57.932Z,81.25
2022-10-21T22:11:15.470Z,81.23
2022-10-21T22:15:19.825Z,81.26
2022-10-21T22:19:31.633Z,81.25
2022-10-21T22:23:30.221Z,81.27
2022-10-21T22:27:28.304Z,81.26
2022-10-21T22:31:29.524Z,81.30
2022-10-21T22:35:28.912Z,81.35
2022-10-21T22:39:46.112Z,81.46
2022-10-21T22:43:06.004Z,81.54
2022-10-21T22:47:18.034Z,81.54
2022-10-21T22:51:16.369Z,81.55
2022-10-21T22:55:14.273Z,81.55
2022-10-21T22:59:12.158Z,81.52
2022-10-21T23:03:24.234Z,81.63
2022-10-21T23:07:36.374Z,81.65
2022-10-21T23:11:35.037Z,81.68
2022-10-21T23:15:50.334Z,81.74
2022-10-21T23:20:02.495Z,81.90
2022-10-21T23:24:26.658Z,82.02
2022-10-21T23:28:25.864Z,82.22
2022-10-21T23:32:38.174Z,82.23
2022-10-21T23:36:36.835Z,82.21
2022-10-21T23:40:49.257Z,82.20
2022-10-21T23:45:06.907Z,82.27
2022-10-21T23:48:25.380Z,82.29
2022-10-21T23:52:24.154Z,82.25
2022-10-21T23:56:36.434Z,82.41
